createdAt,value
2017-05-19T00:02:03.670Z,85.70
2017-05-19T00:04:33.761Z,85.90
2017-05-19T00:07:04.524Z,86.20
2017-05-19T00:09:34.515Z,86.10
2017-05-19T00:12:04.528Z,86.40
2017-05-19T00:14:34.521Z,86.70
2017-05-19T00:17:05.285Z,86.50
2017-05-19T00:19:35.301Z,86.50
2017-05-19T00:22:05.308Z,86.50
2017-05-19T00:24:35.283Z,86.50
2017-05-19T00:27:06.027Z,86.60
2017-05-19T00:29:35.993Z,86.50
2017-05-19T00:32:06.008Z,86.50
2017-05-19T00:34:35.982Z,86.10
2017-05-19T00:37:06.725Z,86.20
2017-05-19T00:39:36.708Z,87.10
2017-05-19T00:42:06.733Z,86.50
2017-05-19T00:44:36.711Z,86.40
2017-05-19T00:47:06.717Z,86.00
2017-05-19T00:49:36.738Z,86.00
2017-05-19T00:52:06.739Z,85.70
2017-05-19T00:54:36.737Z,85.90
2017-05-19T00:57:06.742Z,84.70
2017-05-19T00:59:37.455Z,83.90
2017-05-19T01:02:07.449Z,83.90
2017-05-19T01:04:37.437Z,84.30
2017-05-19T01:07:07.437Z,84.60
2017-05-19T01:09:37.401Z,84.80
2017-05-19T01:12:07.423Z,85.10
2017-05-19T01:14:37.389Z,83.50
2017-05-19T01:17:07.385Z,83.10
2017-05-19T01:19:37.367Z,83.60
2017-05-19T01:22:07.539Z,84.20
2017-05-19T01:24:38.232Z,85.20
2017-05-19T01:27:08.212Z,86.10
2017-05-19T01:29:38.181Z,85.80
2017-05-19T01:32:08.960Z,85.90
2017-05-19T01:34:38.926Z,85.90
2017-05-19T01:37:09.684Z,86.20
2017-05-19T01:39:39.309Z,86.00
2017-05-19T01:42:09.549Z,86.10
2017-05-19T01:44:39.208Z,86.50
2017-05-19T01:47:08.854Z,86.40
2017-05-19T01:49:38.829Z,86.80
2017-05-19T01:52:08.811Z,86.20
2017-05-19T01:54:38.793Z,85.80
2017-05-19T01:57:08.801Z,84.50
2017-05-19T01:59:38.771Z,84.80
2017-05-19T02:02:09.486Z,84.30
2017-05-19T02:04:39.491Z,83.90
2017-05-19T02:07:09.455Z,83.40
2017-05-19T02:09:39.479Z,83.60
2017-05-19T02:12:09.445Z,83.20
2017-05-19T02:14:39.452Z,83.20
2017-05-19T02:17:10.115Z,82.20
2017-05-19T02:19:40.903Z,81.20
2017-05-19T02:22:10.869Z,81.10
2017-05-19T02:24:41.613Z,80.50
2017-05-19T02:27:11.581Z,80.30
2017-05-19T02:29:41.584Z,80.10
2017-05-19T02:32:11.558Z,80.50
2017-05-19T02:34:41.582Z,81.20
2017-05-19T02:37:11.550Z,80.70
2017-05-19T02:39:41.800Z,81.50
2017-05-19T02:42:12.525Z,81.80
2017-05-19T02:44:43.291Z,82.10
2017-05-19T02:47:13.605Z,82.40
2017-05-19T02:49:43.611Z,82.50
2017-05-19T02:52:13.593Z,82.60
2017-05-19T02:54:43.592Z,82.80
2017-05-19T02:57:13.589Z,83.00
2017-05-19T02:59:43.677Z,83.10
2017-05-19T03:02:14.385Z,83.00
2017-05-19T03:04:44.409Z,82.90
2017-05-19T03:07:14.405Z,83.80
2017-05-19T03:09:44.394Z,83.40
2017-05-19T03:12:14.357Z,83.40
2017-05-19T03:14:45.125Z,83.00
2017-05-19T03:17:15.164Z,82.60
2017-05-19T03:19:45.181Z,82.60
2017-05-19T03:22:15.864Z,82.40
2017-05-19T03:24:46.619Z,82.40
2017-05-19T03:27:16.644Z,82.90
2017-05-19T03:29:46.832Z,82.90
2017-05-19T03:32:17.536Z,82.60
2017-05-19T03:34:47.549Z,83.00
2017-05-19T03:37:17.544Z,82.90
2017-05-19T03:39:47.560Z,83.00
2017-05-19T03:42:17.536Z,82.50
2017-05-19T03:44:47.538Z,83.00
2017-05-19T03:47:18.276Z,82.20
2017-05-19T03:49:49.045Z,81.40
2017-05-19T03:52:19.028Z,80.90
2017-05-19T03:54:49.756Z,81.30
2017-05-19T03:57:20.464Z,81.70
2017-05-19T03:59:50.497Z,81.60
2017-05-19T04:02:21.220Z,82.10
2017-05-19T04:04:51.244Z,81.90
2017-05-19T04:07:21.201Z,82.80
2017-05-19T04:09:51.212Z,82.90
2017-05-19T04:12:21.180Z,82.90
2017-05-19T04:14:51.164Z,82.90
2017-05-19T04:17:21.123Z,82.50
2017-05-19T04:19:51.860Z,82.20
2017-05-19T04:22:22.573Z,82.60
2017-05-19T04:24:52.583Z,82.70
2017-05-19T04:27:22.548Z,82.50
2017-05-19T04:29:52.536Z,82.70
2017-05-19T04:32:23.185Z,83.00
2017-05-19T04:34:53.912Z,83.50
2017-05-19T04:37:23.883Z,84.00
2017-05-19T04:39:53.892Z,83.10
2017-05-19T04:42:24.548Z,83.10
2017-05-19T04:44:54.569Z,82.70
2017-05-19T04:47:24.534Z,82.50
2017-05-19T04:49:54.533Z,83.00
2017-05-19T04:52:24.503Z,82.90
2017-05-19T04:54:54.507Z,83.20
2017-05-19T04:57:24.466Z,83.60
2017-05-19T04:59:55.198Z,83.70
2017-05-19T05:02:25.914Z,83.30
2017-05-19T05:04:55.923Z,83.10
2017-05-19T05:07:25.897Z,83.20
2017-05-19T05:09:55.922Z,82.40
2017-05-19T05:12:25.884Z,82.90
2017-05-19T05:14:55.893Z,83.80
2017-05-19T05:17:26.719Z,84.20
2017-05-19T05:19:56.711Z,82.60
2017-05-19T05:22:26.694Z,81.90
2017-05-19T05:24:56.680Z,80.80
2017-05-19T05:27:27.391Z,79.40
2017-05-19T05:29:57.394Z,79.40
2017-05-19T05:32:27.362Z,78.70
2017-05-19T05:34:57.373Z,79.70
2017-05-19T05:37:27.344Z,79.60
2017-05-19T05:39:57.338Z,78.50
2017-05-19T05:42:27.318Z,78.30
2017-05-19T05:45:39.905Z,80.10
2017-05-19T05:48:09.095Z,78.60
2017-05-19T05:50:37.512Z,78.60
2017-05-19T05:53:06.792Z,79.00
2017-05-19T05:55:35.972Z,78.80
2017-05-19T05:58:05.170Z,79.30
2017-05-19T06:00:34.412Z,78.70
2017-05-19T06:03:03.607Z,78.60
2017-05-19T06:05:32.799Z,78.60
2017-05-19T06:08:02.006Z,79.70
2017-05-19T06:10:31.213Z,78.70
2017-05-19T06:13:00.400Z,79.60
2017-05-19T06:15:29.601Z,78.60
2017-05-19T06:17:58.793Z,78.70
2017-05-19T06:20:27.977Z,78.80
2017-05-19T06:22:57.269Z,78.70
2017-05-19T06:25:26.458Z,78.10
2017-05-19T06:27:55.698Z,78.20
2017-05-19T06:30:24.902Z,78.00
2017-05-19T06:32:54.103Z,78.80
2017-05-19T06:35:24.005Z,78.70
2017-05-19T06:37:53.206Z,78.10
2017-05-19T06:40:22.404Z,78.40
2017-05-19T06:42:51.649Z,78.40
2017-05-19T06:45:20.844Z,77.70
2017-05-19T06:47:50.033Z,78.50
2017-05-19T06:50:19.239Z,78.50
2017-05-19T06:52:48.445Z,79.10
2017-05-19T06:55:17.638Z,79.10
2017-05-19T06:57:46.860Z,79.30
2017-05-19T07:00:16.091Z,78.50
2017-05-19T07:02:45.280Z,78.10
2017-05-19T07:05:14.513Z,78.70
2017-05-19T07:07:43.707Z,78.60
2017-05-19T07:10:12.905Z,79.30
2017-05-19T07:12:42.114Z,79.30
2017-05-19T07:15:11.305Z,79.30
2017-05-19T07:17:40.496Z,80.00
2017-05-19T07:20:09.730Z,80.40
2017-05-19T07:22:38.925Z,80.60
2017-05-19T07:25:08.167Z,80.00
2017-05-19T07:27:37.410Z,79.70
2017-05-19T07:30:07.285Z,79.80
2017-05-19T07:32:36.510Z,79.50
2017-05-19T07:35:06.400Z,80.20
2017-05-19T07:37:35.609Z,80.50
2017-05-19T07:40:04.821Z,80.10
2017-05-19T07:42:34.033Z,80.60
2017-05-19T07:45:03.239Z,80.10
2017-05-19T07:47:32.434Z,80.50
2017-05-19T07:50:01.621Z,80.20
2017-05-19T07:52:30.826Z,80.30
2017-05-19T07:55:00.006Z,79.70
2017-05-19T07:57:29.200Z,80.40
2017-05-19T07:59:58.408Z,80.90
2017-05-19T08:02:27.592Z,81.10
2017-05-19T08:04:56.770Z,80.80
2017-05-19T08:07:26.001Z,81.30
2017-05-19T08:09:55.213Z,81.60
2017-05-19T08:12:24.401Z,81.40
2017-05-19T08:14:53.621Z,81.20
2017-05-19T08:17:23.489Z,80.90
2017-05-19T08:19:52.692Z,81.10
2017-05-19T08:22:21.900Z,80.70
2017-05-19T08:24:51.076Z,80.60
2017-05-19T08:27:20.282Z,80.90
2017-05-19T08:29:49.473Z,81.30
2017-05-19T08:32:18.650Z,81.70
2017-05-19T08:34:47.853Z,82.10
2017-05-19T08:37:17.041Z,81.50
2017-05-19T08:39:46.253Z,82.10
2017-05-19T08:42:15.440Z,82.20
2017-05-19T08:44:44.628Z,82.90
2017-05-19T08:47:13.844Z,82.60
2017-05-19T08:49:43.024Z,83.80
2017-05-19T08:52:12.224Z,83.90
2017-05-19T08:54:41.457Z,82.60
2017-05-19T08:57:10.645Z,82.10
2017-05-19T08:59:39.849Z,82.50
2017-05-19T09:02:09.070Z,82.50
2017-05-19T09:04:38.265Z,82.00
2017-05-19T09:07:07.440Z,82.00
2017-05-19T09:09:36.642Z,81.80
2017-05-19T09:12:05.848Z,81.70
2017-05-19T09:14:35.036Z,83.20
2017-05-19T09:17:04.256Z,82.30
2017-05-19T09:19:33.443Z,82.80
2017-05-19T09:22:02.631Z,82.10
2017-05-19T09:24:31.922Z,80.90
2017-05-19T09:27:01.106Z,81.60
2017-05-19T09:29:30.281Z,82.50
2017-05-19T09:31:59.480Z,82.10
2017-05-19T09:34:28.692Z,82.70
2017-05-19T09:36:57.876Z,83.10
2017-05-19T09:39:27.089Z,82.70
2017-05-19T09:41:56.284Z,80.10
2017-05-19T09:44:25.472Z,81.50
2017-05-19T09:46:54.692Z,81.70
2017-05-19T09:49:23.889Z,81.40
2017-05-19T09:51:53.085Z,81.80
2017-05-19T09:54:22.306Z,81.80
2017-05-19T09:56:51.599Z,81.40
2017-05-19T09:59:20.777Z,82.00
2017-05-19T10:01:49.993Z,81.40
2017-05-19T10:04:19.173Z,81.30
2017-05-19T10:06:48.360Z,80.90
2017-05-19T10:09:17.560Z,82.90
2017-05-19T10:11:46.752Z,82.50
2017-05-19T10:14:15.935Z,82.00
2017-05-19T10:16:45.173Z,81.80
2017-05-19T10:19:14.377Z,82.80
2017-05-19T10:21:43.569Z,81.20
2017-05-19T10:24:12.765Z,81.40
2017-05-19T10:26:41.945Z,81.20
2017-05-19T10:29:11.137Z,81.30
2017-05-19T10:31:40.347Z,81.00
2017-05-19T10:34:09.528Z,82.30
2017-05-19T10:36:38.721Z,80.80
2017-05-19T10:39:07.925Z,81.70
2017-05-19T10:41:37.118Z,81.30
2017-05-19T10:44:06.314Z,81.10
2017-05-19T10:46:35.521Z,81.90
2017-05-19T10:49:04.709Z,80.70
2017-05-19T10:51:33.897Z,80.60
2017-05-19T10:54:03.093Z,80.50
2017-05-19T10:56:32.273Z,79.60
2017-05-19T10:59:01.475Z,80.70
2017-05-19T11:01:30.681Z,79.80
2017-05-19T11:03:59.876Z,79.40
2017-05-19T11:06:29.060Z,80.10
2017-05-19T11:08:58.286Z,80.30
2017-05-19T11:11:27.475Z,81.20
2017-05-19T11:13:56.677Z,80.20
2017-05-19T11:16:25.888Z,80.90
2017-05-19T11:18:55.073Z,80.40
2017-05-19T11:21:24.265Z,81.40
2017-05-19T11:23:53.473Z,81.00
2017-05-19T11:26:22.652Z,80.90
2017-05-19T11:28:51.845Z,80.40
2017-05-19T11:31:21.096Z,80.10
2017-05-19T11:33:50.300Z,80.60
2017-05-19T11:36:19.479Z,80.20
2017-05-19T11:38:48.743Z,80.50
2017-05-19T11:41:17.933Z,77.70
2017-05-19T11:43:47.118Z,77.80
2017-05-19T11:46:16.325Z,79.40
2017-05-19T11:48:45.529Z,76.60
2017-05-19T11:51:14.713Z,78.00
2017-05-19T11:53:43.933Z,76.70
2017-05-19T11:56:13.122Z,77.30
2017-05-19T11:58:42.310Z,77.40
2017-05-19T12:01:11.699Z,75.70
2017-05-19T12:03:41.047Z,77.40
2017-05-19T12:06:10.249Z,78.20
2017-05-19T12:08:39.556Z,77.20
2017-05-19T12:11:08.752Z,78.40
2017-05-19T12:13:38.099Z,78.50
2017-05-19T12:16:07.308Z,78.40
2017-05-19T12:18:36.511Z,78.30
2017-05-19T12:21:05.724Z,78.20
2017-05-19T12:23:34.932Z,78.30
2017-05-19T12:26:04.133Z,78.00
2017-05-19T12:28:33.334Z,77.90
2017-05-19T12:31:02.554Z,78.00
2017-05-19T12:33:31.752Z,78.40
2017-05-19T12:36:00.950Z,78.10
2017-05-19T12:38:30.169Z,77.60
2017-05-19T12:40:59.353Z,78.40
2017-05-19T12:43:28.539Z,79.00
2017-05-19T12:45:57.777Z,80.00
2017-05-19T12:48:27.049Z,79.40
2017-05-19T12:50:56.386Z,79.00
2017-05-19T12:53:25.624Z,78.60
2017-05-19T12:55:54.824Z,78.40
2017-05-19T12:58:24.016Z,78.60
2017-05-19T13:00:53.292Z,78.90
2017-05-19T13:03:22.478Z,78.90
2017-05-19T13:05:51.678Z,79.30
2017-05-19T13:08:20.891Z,80.10
2017-05-19T13:10:50.105Z,79.80
2017-05-19T13:13:20.079Z,80.30
2017-05-19T13:15:49.373Z,80.10
2017-05-19T13:18:18.561Z,80.40
2017-05-19T13:20:47.785Z,79.20
2017-05-19T13:23:16.982Z,79.50
2017-05-19T13:25:46.268Z,80.50
2017-05-19T13:28:15.498Z,80.80
2017-05-19T13:30:44.723Z,79.30
2017-05-19T13:33:13.931Z,80.30
2017-05-19T13:35:43.148Z,80.10
2017-05-19T13:38:12.354Z,79.00
2017-05-19T13:40:41.554Z,79.80
2017-05-19T13:43:10.768Z,80.30
2017-05-19T13:45:40.063Z,80.00
2017-05-19T13:48:09.259Z,80.50
2017-05-19T13:50:38.487Z,80.40
2017-05-19T13:53:07.537Z,80.70
2017-05-19T13:55:36.738Z,81.50
2017-05-19T13:58:05.956Z,80.70
2017-05-19T14:00:35.178Z,80.30
2017-05-19T14:03:04.610Z,81.00
2017-05-19T14:05:33.891Z,81.40
2017-05-19T14:08:03.136Z,81.30
2017-05-19T14:10:32.317Z,81.70
2017-05-19T14:13:01.555Z,83.10
2017-05-19T14:15:30.747Z,82.50
2017-05-19T14:17:59.957Z,81.30
2017-05-19T14:20:29.188Z,81.30
2017-05-19T14:22:58.372Z,82.00
2017-05-19T14:25:27.568Z,82.60
2017-05-19T14:27:56.812Z,82.10
2017-05-19T14:30:26.061Z,82.80
2017-05-19T14:32:55.324Z,83.20
2017-05-19T14:35:24.691Z,81.90
2017-05-19T14:37:53.907Z,81.70
2017-05-19T14:40:23.204Z,80.50
2017-05-19T14:42:52.426Z,79.80
2017-05-19T14:45:21.670Z,81.60
2017-05-19T14:47:50.869Z,81.60
2017-05-19T14:50:20.103Z,81.40
2017-05-19T14:52:49.305Z,80.50
2017-05-19T14:55:18.506Z,81.20
2017-05-19T14:57:47.734Z,81.60
2017-05-19T15:00:17.451Z,81.20
2017-05-19T15:02:46.638Z,80.30
2017-05-19T15:05:16.490Z,79.90
2017-05-19T15:07:45.677Z,79.90
2017-05-19T15:10:14.879Z,80.40
2017-05-19T15:12:44.086Z,81.00
2017-05-19T15:15:13.733Z,81.70
2017-05-19T15:17:43.013Z,81.10
2017-05-19T15:20:12.220Z,80.90
2017-05-19T15:22:41.413Z,81.30
2017-05-19T15:25:10.600Z,78.70
2017-05-19T15:27:39.825Z,80.30
2017-05-19T15:30:09.008Z,80.30
2017-05-19T15:32:38.209Z,79.00
2017-05-19T15:35:08.124Z,78.90
2017-05-19T15:37:38.011Z,78.10
2017-05-19T15:40:07.208Z,78.00
2017-05-19T15:42:36.415Z,79.60
2017-05-19T15:45:05.593Z,79.40
2017-05-19T15:47:34.808Z,79.40
2017-05-19T15:50:04.016Z,79.10
2017-05-19T15:52:33.208Z,79.20
2017-05-19T15:55:02.437Z,79.50
2017-05-19T15:57:31.636Z,79.80
2017-05-19T16:00:00.830Z,79.90
2017-05-19T16:02:30.067Z,79.80
2017-05-19T16:04:59.245Z,80.20
2017-05-19T16:07:28.447Z,78.90
2017-05-19T16:09:57.657Z,80.00
2017-05-19T16:12:26.857Z,80.90
2017-05-19T16:14:56.041Z,79.80
2017-05-19T16:17:25.267Z,79.30
2017-05-19T16:19:54.456Z,78.70
2017-05-19T16:22:23.766Z,79.30
2017-05-19T16:24:52.984Z,78.60
2017-05-19T16:27:22.180Z,79.30
2017-05-19T16:29:51.387Z,79.30
2017-05-19T16:32:20.633Z,79.00
2017-05-19T16:34:49.833Z,78.40
2017-05-19T16:37:19.019Z,78.90
2017-05-19T16:39:48.235Z,79.40
2017-05-19T16:42:17.442Z,80.30
2017-05-19T16:44:46.637Z,80.40
2017-05-19T16:47:15.893Z,81.10
2017-05-19T16:49:45.092Z,80.70
2017-05-19T16:52:14.274Z,80.60
2017-05-19T16:54:43.540Z,80.00
2017-05-19T16:57:12.729Z,81.60
2017-05-19T16:59:41.924Z,81.10
2017-05-19T17:02:11.150Z,81.20
2017-05-19T17:04:40.326Z,79.10
2017-05-19T17:07:09.536Z,81.00
2017-05-19T17:09:38.889Z,80.70
2017-05-19T17:12:08.084Z,80.40
2017-05-19T17:14:37.295Z,79.80
2017-05-19T17:17:06.505Z,80.10
2017-05-19T17:19:35.787Z,79.00
2017-05-19T17:22:05.077Z,79.60
2017-05-19T17:24:34.318Z,79.60
2017-05-19T17:27:03.508Z,80.00
2017-05-19T17:29:32.708Z,80.10
2017-05-19T17:32:01.924Z,79.50
2017-05-19T17:34:31.141Z,78.60
2017-05-19T17:37:00.353Z,78.70
2017-05-19T17:39:30.249Z,78.70
2017-05-19T17:41:59.699Z,79.10
2017-05-19T17:44:28.931Z,79.40
2017-05-19T17:46:58.124Z,78.80
2017-05-19T17:49:27.347Z,78.70
2017-05-19T17:51:56.568Z,78.60
2017-05-19T17:54:25.783Z,78.00
2017-05-19T17:56:54.970Z,78.20
2017-05-19T17:59:24.275Z,79.00
2017-05-19T18:01:53.524Z,79.00
2017-05-19T18:04:22.719Z,79.10
2017-05-19T18:06:51.943Z,79.20
2017-05-19T18:09:21.135Z,78.50
2017-05-19T18:11:50.324Z,78.60
2017-05-19T18:14:19.541Z,79.50
2017-05-19T18:16:48.782Z,78.80
2017-05-19T18:19:17.995Z,78.60
2017-05-19T18:21:47.229Z,78.80
2017-05-19T18:24:16.429Z,79.70
2017-05-19T18:26:46.336Z,80.80
2017-05-19T18:29:15.535Z,79.80
2017-05-19T18:31:44.746Z,79.80
2017-05-19T18:34:13.945Z,80.00
2017-05-19T18:36:43.130Z,80.20
2017-05-19T18:39:12.325Z,80.60
2017-05-19T18:41:41.510Z,80.60
2017-05-19T18:44:10.708Z,80.70
2017-05-19T18:46:39.893Z,80.20
2017-05-19T18:49:09.120Z,79.80
2017-05-19T18:51:38.312Z,80.10
2017-05-19T18:54:07.511Z,79.50
2017-05-19T18:56:36.725Z,80.70
2017-05-19T18:59:05.926Z,80.90
2017-05-19T19:01:35.117Z,81.40
2017-05-19T19:04:04.345Z,80.00
2017-05-19T19:06:33.545Z,77.20
2017-05-19T19:09:02.738Z,75.40
2017-05-19T19:11:31.949Z,75.00
2017-05-19T19:14:01.182Z,74.70
2017-05-19T19:16:30.382Z,75.40
2017-05-19T19:18:59.593Z,75.30
2017-05-19T19:21:28.783Z,75.50
2017-05-19T19:23:57.983Z,74.60
2017-05-19T19:26:27.296Z,74.50
2017-05-19T19:28:56.489Z,74.90
2017-05-19T19:31:25.677Z,75.80
2017-05-19T19:33:54.902Z,75.30
2017-05-19T19:36:24.119Z,76.00
2017-05-19T19:38:53.325Z,74.90
2017-05-19T19:41:23.221Z,75.60
2017-05-19T19:43:52.423Z,76.10
2017-05-19T19:46:21.628Z,76.70
2017-05-19T19:48:50.835Z,75.70
2017-05-19T19:51:20.026Z,76.20
2017-05-19T19:53:49.221Z,76.50
2017-05-19T19:56:18.475Z,74.70
2017-05-19T19:58:47.666Z,75.30
2017-05-19T20:01:17.489Z,75.60
2017-05-19T20:03:46.697Z,75.60
2017-05-19T20:06:15.896Z,75.10
2017-05-19T20:08:45.119Z,75.40
2017-05-19T20:11:14.325Z,75.10
2017-05-19T20:13:43.514Z,75.60
2017-05-19T20:16:12.884Z,75.70
2017-05-19T20:18:42.154Z,76.10
2017-05-19T20:21:11.346Z,76.60
2017-05-19T20:23:40.560Z,76.40
2017-05-19T20:26:09.592Z,76.70
2017-05-19T20:28:38.782Z,77.30
2017-05-19T20:31:08.000Z,77.10
2017-05-19T20:33:37.201Z,77.30
2017-05-19T20:36:06.457Z,77.80
2017-05-19T20:38:35.317Z,77.60
2017-05-19T20:41:04.517Z,77.70
2017-05-19T20:43:33.705Z,77.10
2017-05-19T20:46:02.934Z,77.50
2017-05-19T20:48:32.118Z,77.00
2017-05-19T20:51:01.305Z,77.30
2017-05-19T20:53:30.525Z,77.30
2017-05-19T20:55:59.801Z,76.90
2017-05-19T20:58:28.993Z,76.90
2017-05-19T21:00:58.201Z,76.70
2017-05-19T21:03:27.399Z,77.00
2017-05-19T21:05:56.582Z,77.00
2017-05-19T21:08:25.812Z,76.80
2017-05-19T21:10:55.083Z,77.00
2017-05-19T21:13:24.286Z,76.70
2017-05-19T21:15:53.518Z,75.60
2017-05-19T21:18:22.706Z,76.10
2017-05-19T21:20:51.895Z,74.60
2017-05-19T21:23:21.150Z,75.10
2017-05-19T21:25:50.341Z,75.20
2017-05-19T21:28:19.544Z,75.60
2017-05-19T21:30:48.772Z,76.00
2017-05-19T21:33:17.979Z,76.40
2017-05-19T21:35:47.185Z,77.10
2017-05-19T21:38:16.406Z,76.10
2017-05-19T21:40:46.382Z,76.30
2017-05-19T21:43:15.730Z,76.70
2017-05-19T21:45:44.976Z,77.00
2017-05-19T21:48:14.177Z,77.20
2017-05-19T21:50:43.394Z,76.90
2017-05-19T21:53:12.680Z,77.20
2017-05-19T21:55:41.899Z,77.10
2017-05-19T21:58:11.102Z,76.90
2017-05-19T22:00:41.136Z,77.70
2017-05-19T22:03:10.328Z,77.40
2017-05-19T22:05:39.524Z,77.00
2017-05-19T22:08:08.754Z,76.40
2017-05-19T22:10:37.948Z,76.30
2017-05-19T22:13:07.136Z,76.70
2017-05-19T22:15:36.352Z,76.50
2017-05-19T22:18:05.546Z,75.50
2017-05-19T22:20:34.725Z,76.50
2017-05-19T22:23:03.952Z,76.20
2017-05-19T22:25:33.148Z,75.90
2017-05-19T22:28:02.333Z,75.80
2017-05-19T22:30:31.536Z,76.20
2017-05-19T22:33:00.720Z,76.30
2017-05-19T22:35:29.906Z,75.80
2017-05-19T22:37:59.117Z,75.30
2017-05-19T22:40:28.299Z,75.80
2017-05-19T22:42:57.493Z,75.80
2017-05-19T22:45:26.831Z,75.30
2017-05-19T22:47:56.022Z,74.80
2017-05-19T22:50:25.201Z,75.60
2017-05-19T22:52:54.401Z,75.10
2017-05-19T22:55:23.585Z,75.50
2017-05-19T22:57:52.784Z,75.60
2017-05-19T23:00:22.004Z,75.60
2017-05-19T23:02:51.202Z,75.80
2017-05-19T23:05:20.388Z,75.90
2017-05-19T23:07:49.614Z,76.30
2017-05-19T23:10:18.792Z,76.30
2017-05-19T23:12:47.979Z,76.30
2017-05-19T23:15:17.200Z,76.40
2017-05-19T23:17:46.386Z,76.50
2017-05-19T23:20:15.575Z,76.10
2017-05-19T23:22:44.773Z,76.10
2017-05-19T23:25:13.957Z,76.30
2017-05-19T23:27:43.137Z,76.20
2017-05-19T23:30:12.349Z,76.80
2017-05-19T23:32:41.519Z,76.90
2017-05-19T23:35:10.764Z,76.80
2017-05-19T23:37:39.979Z,76.60
2017-05-19T23:40:09.189Z,76.70
2017-05-19T23:42:38.378Z,76.60
2017-05-19T23:45:07.578Z,76.30
2017-05-19T23:47:36.761Z,76.50
2017-05-19T23:50:05.956Z,76.50
2017-05-19T23:52:35.874Z,76.90
2017-05-19T23:55:05.054Z,76.10
2017-05-19T23:57:34.240Z,75.90
